createdAt,value
2018-01-14T00:00:15.068Z,16.62
2018-01-14T00:02:42.553Z,15.80
2018-01-14T00:05:10.054Z,11.75
2018-01-14T00:07:37.561Z,13.95
2018-01-14T00:10:05.046Z,16.60
2018-01-14T00:12:32.538Z,12.68
2018-01-14T00:15:00.058Z,17.98
2018-01-14T00:17:27.566Z,15.85
2018-01-14T00:19:55.145Z,14.00
2018-01-14T00:22:22.635Z,17.20
2018-01-14T00:24:51.080Z,18.10
2018-01-14T00:27:18.492Z,17.62
2018-01-14T00:29:46.033Z,14.80
2018-01-14T00:32:13.534Z,17.00
2018-01-14T00:34:41.061Z,19.95
2018-01-14T00:37:08.566Z,19.25
2018-01-14T00:39:36.086Z,19.75
2018-01-14T00:42:03.646Z,16.17
2018-01-14T00:44:31.186Z,15.90
2018-01-14T00:46:58.695Z,23.45
2018-01-14T00:49:26.189Z,21.10
2018-01-14T00:51:53.677Z,18.52
2018-01-14T00:54:21.169Z,24.15
2018-01-14T00:56:48.673Z,19.10
2018-01-14T00:59:16.155Z,16.23
2018-01-14T01:01:43.634Z,14.20
2018-01-14T01:04:11.125Z,16.95
2018-01-14T01:06:38.728Z,20.83
2018-01-14T01:09:06.237Z,19.75
2018-01-14T01:11:33.744Z,17.52
2018-01-14T01:14:01.241Z,21.20
2018-01-14T01:16:28.726Z,18.62
2018-01-14T01:18:56.320Z,18.42
2018-01-14T01:21:23.831Z,19.00
2018-01-14T01:23:51.350Z,15.00
2018-01-14T01:26:18.793Z,19.62
2018-01-14T01:28:47.222Z,14.90
2018-01-14T01:31:14.714Z,14.85
2018-01-14T01:33:42.232Z,16.80
2018-01-14T01:36:09.730Z,15.80
2018-01-14T01:38:37.250Z,16.37
2018-01-14T01:41:04.777Z,20.75
2018-01-14T01:43:32.286Z,14.32
2018-01-14T01:45:59.772Z,14.02
2018-01-14T01:48:29.209Z,13.75
2018-01-14T01:50:56.710Z,13.32
2018-01-14T01:53:24.303Z,14.23
2018-01-14T01:55:51.790Z,14.68
2018-01-14T01:58:19.278Z,21.12
2018-01-14T02:00:46.801Z,17.75
2018-01-14T02:03:14.337Z,18.65
2018-01-14T02:05:41.822Z,15.93
2018-01-14T02:08:09.309Z,15.30
2018-01-14T02:10:36.795Z,13.62
2018-01-14T02:13:04.301Z,18.60
2018-01-14T02:15:31.796Z,16.52
2018-01-14T02:17:59.272Z,13.95
2018-01-14T02:20:26.783Z,15.60
2018-01-14T02:22:54.268Z,16.98
2018-01-14T02:25:21.845Z,16.52
2018-01-14T02:27:49.428Z,14.75
2018-01-14T02:30:16.917Z,14.45
2018-01-14T02:32:44.398Z,17.12
2018-01-14T02:35:11.895Z,16.10
2018-01-14T02:37:39.393Z,17.10
2018-01-14T02:40:06.911Z,17.67
2018-01-14T02:42:34.405Z,18.37
2018-01-14T02:45:01.897Z,13.43
2018-01-14T02:47:29.411Z,22.25
2018-01-14T02:49:56.917Z,17.05
2018-01-14T02:52:24.430Z,12.15
2018-01-14T02:54:51.922Z,20.23
2018-01-14T02:57:19.421Z,12.27
2018-01-14T02:59:46.985Z,11.00
2018-01-14T03:02:14.489Z,14.02
2018-01-14T03:04:41.980Z,13.90
2018-01-14T03:07:09.465Z,13.65
2018-01-14T03:09:37.015Z,12.95
2018-01-14T03:12:04.530Z,14.68
2018-01-14T03:14:32.013Z,10.82
2018-01-14T03:16:59.599Z,11.50
2018-01-14T03:19:27.102Z,12.07
2018-01-14T03:21:54.589Z,12.32
2018-01-14T03:24:22.069Z,12.07
2018-01-14T03:26:49.638Z,11.57
2018-01-14T03:29:17.135Z,14.68
2018-01-14T03:31:44.640Z,13.32
2018-01-14T03:34:12.121Z,21.83
2018-01-14T03:36:39.637Z,10.57
2018-01-14T03:39:09.118Z,10.05
2018-01-14T03:41:36.597Z,9.23
2018-01-14T03:44:04.096Z,9.27
2018-01-14T03:46:31.586Z,11.10
2018-01-14T03:48:59.070Z,11.85
2018-01-14T03:51:26.553Z,11.48
2018-01-14T03:53:54.038Z,9.60
2018-01-14T03:56:21.545Z,10.63
2018-01-14T03:58:49.042Z,14.18
2018-01-14T04:01:16.534Z,12.27
2018-01-14T04:03:44.045Z,20.80
2018-01-14T04:06:11.534Z,10.68
2018-01-14T04:08:39.017Z,9.02
2018-01-14T04:11:06.534Z,9.23
2018-01-14T04:13:34.033Z,9.65
2018-01-14T04:16:02.303Z,13.25
2018-01-14T04:18:29.811Z,10.07
2018-01-14T04:20:57.298Z,7.90
2018-01-14T04:23:24.786Z,11.93
2018-01-14T04:25:52.277Z,11.20
2018-01-14T04:28:19.856Z,10.95
2018-01-14T04:30:47.338Z,8.02
2018-01-14T04:33:14.838Z,8.07
2018-01-14T04:35:42.327Z,12.60
2018-01-14T04:38:09.891Z,8.10
2018-01-14T04:40:37.369Z,8.38
2018-01-14T04:43:04.856Z,15.02
2018-01-14T04:45:32.360Z,11.27
2018-01-14T04:47:59.853Z,12.37
2018-01-14T04:50:27.349Z,11.82
2018-01-14T04:52:55.773Z,9.20
2018-01-14T04:55:23.317Z,11.55
2018-01-14T04:57:51.094Z,10.45
2018-01-14T05:00:18.589Z,12.35
2018-01-14T05:02:46.075Z,10.85
2018-01-14T05:05:13.559Z,9.85
2018-01-14T05:07:41.045Z,10.80
2018-01-14T05:10:08.530Z,13.55
2018-01-14T05:12:36.013Z,8.93
2018-01-14T05:15:03.389Z,10.73
2018-01-14T05:17:30.873Z,10.45
2018-01-14T05:19:58.366Z,11.05
2018-01-14T05:22:25.966Z,10.48
2018-01-14T05:24:53.466Z,11.48
2018-01-14T05:27:20.954Z,10.98
2018-01-14T05:29:48.454Z,7.97
2018-01-14T05:32:15.933Z,9.93
2018-01-14T05:34:43.411Z,9.93
2018-01-14T05:37:11.849Z,10.10
2018-01-14T05:39:39.361Z,10.10
2018-01-14T05:42:07.256Z,13.15
2018-01-14T05:44:34.743Z,9.57
2018-01-14T05:47:01.983Z,10.00
2018-01-14T05:49:29.466Z,10.00
2018-01-14T05:51:56.969Z,11.75
2018-01-14T05:54:24.486Z,12.13
2018-01-14T05:56:51.976Z,8.88
2018-01-14T05:59:19.459Z,9.60
2018-01-14T06:01:46.966Z,13.75
2018-01-14T06:04:14.450Z,10.93
2018-01-14T06:06:41.934Z,11.38
2018-01-14T06:09:09.422Z,14.48
2018-01-14T06:11:36.926Z,11.65
2018-01-14T06:14:04.415Z,9.85
2018-01-14T06:16:31.927Z,12.40
2018-01-14T06:18:59.529Z,9.32
2018-01-14T06:21:27.029Z,8.35
2018-01-14T06:23:54.518Z,11.07
2018-01-14T06:26:22.022Z,9.20
2018-01-14T06:28:49.526Z,10.85
2018-01-14T06:31:17.041Z,9.73
2018-01-14T06:33:45.481Z,10.00
2018-01-14T06:36:12.974Z,8.18
2018-01-14T06:38:40.461Z,8.23
2018-01-14T06:41:07.938Z,8.52
2018-01-14T06:43:35.460Z,9.38
2018-01-14T06:46:02.937Z,7.78
2018-01-14T06:48:30.417Z,7.15
2018-01-14T06:50:58.871Z,9.48
2018-01-14T06:53:26.353Z,7.60
2018-01-14T06:55:53.842Z,10.25
2018-01-14T06:58:21.337Z,9.60
2018-01-14T07:00:49.817Z,7.45
2018-01-14T07:03:17.321Z,9.32
2018-01-14T07:05:44.900Z,12.02
2018-01-14T07:08:12.383Z,9.10
2018-01-14T07:10:39.861Z,8.95
2018-01-14T07:13:07.598Z,10.48
2018-01-14T07:15:35.099Z,9.07
2018-01-14T07:18:02.603Z,11.50
2018-01-14T07:20:30.086Z,10.57
2018-01-14T07:22:58.509Z,10.98
2018-01-14T07:25:25.984Z,6.78
2018-01-14T07:27:53.485Z,9.35
2018-01-14T07:30:20.978Z,10.18
2018-01-14T07:32:48.471Z,7.47
2018-01-14T07:35:15.962Z,6.43
2018-01-14T07:37:44.401Z,11.77
2018-01-14T07:40:11.901Z,10.10
2018-01-14T07:42:39.376Z,9.68
2018-01-14T07:45:06.901Z,11.00
2018-01-14T07:47:34.158Z,7.50
2018-01-14T07:50:01.685Z,8.98
2018-01-14T07:52:29.185Z,7.30
2018-01-14T07:54:56.677Z,8.82
2018-01-14T07:57:25.749Z,8.52
2018-01-14T07:59:53.238Z,7.62
2018-01-14T08:02:20.759Z,9.93
2018-01-14T08:04:48.251Z,8.38
2018-01-14T08:07:15.753Z,9.00
2018-01-14T08:09:43.230Z,9.65
2018-01-14T08:12:10.730Z,9.40
2018-01-14T08:14:38.217Z,7.30
2018-01-14T08:17:05.734Z,8.48
2018-01-14T08:19:33.240Z,12.40
2018-01-14T08:22:00.718Z,6.32
2018-01-14T08:24:28.193Z,7.53
2018-01-14T08:26:55.677Z,10.90
2018-01-14T08:29:23.154Z,8.40
2018-01-14T08:31:50.630Z,9.45
2018-01-14T08:34:19.073Z,11.10
2018-01-14T08:36:46.671Z,6.82
2018-01-14T08:39:14.152Z,9.48
2018-01-14T08:41:42.664Z,12.32
2018-01-14T08:44:10.285Z,10.85
2018-01-14T08:46:37.766Z,9.15
2018-01-14T08:49:05.242Z,8.60
2018-01-14T08:51:32.740Z,6.78
2018-01-14T08:54:00.229Z,9.45
2018-01-14T08:56:27.725Z,7.95
2018-01-14T08:58:55.220Z,9.00
2018-01-14T09:01:28.133Z,8.23
2018-01-14T09:03:55.658Z,10.40
2018-01-14T09:06:22.954Z,9.18
2018-01-14T09:08:50.454Z,8.73
2018-01-14T09:11:17.931Z,6.32
2018-01-14T09:13:46.497Z,8.07
2018-01-14T09:16:14.402Z,8.65
2018-01-14T09:18:41.902Z,7.60
2018-01-14T09:21:09.383Z,9.80
2018-01-14T09:23:36.890Z,10.57
2018-01-14T09:26:05.298Z,8.82
2018-01-14T09:28:32.946Z,12.55
2018-01-14T09:31:03.058Z,12.18
2018-01-14T09:33:30.546Z,7.72
2018-01-14T09:35:58.122Z,10.70
2018-01-14T09:38:25.642Z,7.65
2018-01-14T09:40:53.126Z,8.43
2018-01-14T09:43:20.698Z,5.80
2018-01-14T09:45:48.180Z,10.50
2018-01-14T09:48:15.661Z,8.98
2018-01-14T09:50:43.145Z,7.53
2018-01-14T09:53:10.627Z,7.45
2018-01-14T09:55:38.121Z,10.40
2018-01-14T09:58:05.601Z,9.27
2018-01-14T10:00:33.085Z,7.30
2018-01-14T10:03:00.578Z,10.43
2018-01-14T10:05:28.075Z,9.52
2018-01-14T10:07:55.579Z,9.15
2018-01-14T10:10:23.061Z,8.48
2018-01-14T10:12:50.546Z,11.52
2018-01-14T10:15:18.030Z,9.27
2018-01-14T10:17:45.525Z,10.13
2018-01-14T10:20:13.028Z,9.02
2018-01-14T10:22:40.515Z,8.02
2018-01-14T10:25:08.028Z,7.25
2018-01-14T10:27:35.508Z,7.97
2018-01-14T10:30:03.101Z,9.07
2018-01-14T10:32:30.589Z,9.93
2018-01-14T10:34:58.076Z,8.60
2018-01-14T10:37:25.581Z,7.70
2018-01-14T10:39:53.065Z,10.57
2018-01-14T10:42:20.541Z,4.87
2018-01-14T10:44:48.017Z,8.05
2018-01-14T10:47:15.505Z,6.60
2018-01-14T10:49:42.989Z,12.23
2018-01-14T10:52:10.474Z,9.07
2018-01-14T10:54:37.982Z,14.07
2018-01-14T10:57:05.465Z,10.25
2018-01-14T10:59:32.950Z,11.18
2018-01-14T11:02:00.436Z,5.95
2018-01-14T11:04:27.920Z,7.75
2018-01-14T11:06:55.433Z,10.18
2018-01-14T11:09:22.910Z,7.20
2018-01-14T11:11:50.393Z,7.65
2018-01-14T11:14:17.894Z,8.82
2018-01-14T11:16:45.402Z,8.50
2018-01-14T11:19:13.133Z,8.85
2018-01-14T11:21:40.609Z,7.07
2018-01-14T11:24:08.090Z,6.95
2018-01-14T11:26:35.584Z,6.85
2018-01-14T11:29:03.080Z,7.15
2018-01-14T11:31:30.556Z,7.68
2018-01-14T11:33:58.112Z,8.50
2018-01-14T11:36:25.601Z,8.27
2018-01-14T11:38:55.045Z,9.10
2018-01-14T11:41:22.530Z,8.98
2018-01-14T11:43:50.026Z,8.90
2018-01-14T11:46:17.518Z,9.23
2018-01-14T11:48:45.049Z,10.30
2018-01-14T11:51:12.570Z,10.27
2018-01-14T11:53:40.050Z,9.40
2018-01-14T11:56:07.553Z,11.18
2018-01-14T11:58:35.041Z,8.95
2018-01-14T12:01:02.546Z,9.80
2018-01-14T12:03:30.133Z,11.50
2018-01-14T12:05:58.601Z,15.55
2018-01-14T12:08:26.099Z,10.13
2018-01-14T12:10:53.582Z,11.52
2018-01-14T12:13:21.069Z,10.98
2018-01-14T12:15:48.581Z,12.10
2018-01-14T12:18:16.067Z,10.82
2018-01-14T12:20:43.556Z,10.02
2018-01-14T12:23:11.134Z,13.27
2018-01-14T12:25:39.554Z,10.32
2018-01-14T12:28:07.061Z,8.55
2018-01-14T12:30:34.539Z,7.80
2018-01-14T12:33:05.612Z,13.52
2018-01-14T12:35:33.093Z,9.30
2018-01-14T12:38:00.604Z,9.32
2018-01-14T12:40:28.090Z,10.07
2018-01-14T12:42:55.567Z,6.75
2018-01-14T12:45:23.044Z,7.70
2018-01-14T12:47:50.535Z,8.90
2018-01-14T12:50:18.037Z,6.05
2018-01-14T12:52:45.517Z,6.05
2018-01-14T12:55:13.014Z,5.82
2018-01-14T12:57:40.493Z,5.75
2018-01-14T13:00:07.973Z,9.93
2018-01-14T13:02:35.462Z,8.43
2018-01-14T13:05:02.964Z,6.35
2018-01-14T13:07:30.461Z,7.78
2018-01-14T13:09:57.959Z,7.68
2018-01-14T13:12:25.705Z,7.68
2018-01-14T13:14:53.950Z,6.32
2018-01-14T13:17:21.457Z,9.82
2018-01-14T13:19:48.938Z,7.50
2018-01-14T13:22:17.353Z,6.55
2018-01-14T13:24:44.873Z,5.90
2018-01-14T13:27:12.369Z,7.53
2018-01-14T13:29:39.850Z,6.72
2018-01-14T13:32:07.450Z,6.07
2018-01-14T13:34:34.942Z,4.47
2018-01-14T13:37:02.432Z,5.18
2018-01-14T13:39:29.914Z,8.82
2018-01-14T13:41:57.417Z,6.43
2018-01-14T13:44:24.910Z,5.55
2018-01-14T13:46:52.667Z,5.07
2018-01-14T13:49:20.166Z,7.03
2018-01-14T13:51:47.654Z,5.37
2018-01-14T13:54:15.129Z,5.15
2018-01-14T13:56:42.640Z,5.00
2018-01-14T13:59:10.165Z,5.78
2018-01-14T14:01:37.646Z,5.30
2018-01-14T14:04:05.142Z,3.70
2018-01-14T14:06:32.629Z,3.53
2018-01-14T14:09:01.048Z,3.95
2018-01-14T14:11:28.529Z,4.50
2018-01-14T14:13:56.006Z,5.05
2018-01-14T14:16:23.517Z,4.65
2018-01-14T14:18:51.010Z,35.08
2018-01-14T14:21:20.499Z,7.10
2018-01-14T14:23:48.001Z,5.03
2018-01-14T14:26:15.501Z,6.85
2018-01-14T14:28:42.982Z,5.30
2018-01-14T14:31:10.503Z,4.93
2018-01-14T14:33:37.988Z,13.70
2018-01-14T14:36:05.485Z,14.07
2018-01-14T14:38:32.982Z,6.40
2018-01-14T14:41:00.457Z,7.95
2018-01-14T14:43:27.990Z,4.68
2018-01-14T14:45:55.473Z,7.25
2018-01-14T14:48:23.006Z,5.47
2018-01-14T14:50:50.516Z,5.40
2018-01-14T14:53:18.043Z,6.18
2018-01-14T14:55:45.582Z,5.30
2018-01-14T14:58:13.115Z,5.85
2018-01-14T15:00:41.702Z,6.37
2018-01-14T15:03:09.226Z,5.87
2018-01-14T15:05:36.714Z,5.07
2018-01-14T15:08:04.306Z,4.75
2018-01-14T15:10:31.790Z,5.37
2018-01-14T15:12:59.289Z,5.95
2018-01-14T15:15:26.793Z,8.55
2018-01-14T15:17:54.278Z,5.90
2018-01-14T15:20:21.777Z,4.55
2018-01-14T15:22:49.515Z,5.72
2018-01-14T15:25:16.993Z,4.68
2018-01-14T15:27:44.515Z,5.68
2018-01-14T15:30:11.994Z,5.70
2018-01-14T15:32:39.561Z,5.85
2018-01-14T15:35:07.085Z,5.40
2018-01-14T15:37:35.591Z,5.12
2018-01-14T15:40:03.087Z,5.05
2018-01-14T15:42:30.562Z,5.30
2018-01-14T15:44:57.910Z,6.00
2018-01-14T15:47:25.481Z,5.90
2018-01-14T15:49:53.008Z,6.37
2018-01-14T15:52:20.501Z,6.35
2018-01-14T15:54:47.985Z,8.40
2018-01-14T15:57:15.499Z,5.28
2018-01-14T15:59:42.984Z,5.20
2018-01-14T16:02:10.474Z,4.65
2018-01-14T16:04:37.953Z,5.12
2018-01-14T16:07:05.434Z,5.87
2018-01-14T16:09:35.720Z,5.12
2018-01-14T16:12:03.237Z,5.75
2018-01-14T16:14:30.735Z,4.43
2018-01-14T16:16:58.221Z,4.68
2018-01-14T16:19:25.707Z,5.12
2018-01-14T16:21:53.206Z,4.90
2018-01-14T16:24:21.182Z,5.25
2018-01-14T16:26:48.728Z,5.32
2018-01-14T16:29:16.209Z,5.80
2018-01-14T16:31:43.710Z,6.45
2018-01-14T16:34:11.198Z,10.10
2018-01-14T16:36:38.696Z,6.65
2018-01-14T16:39:06.193Z,10.10
2018-01-14T16:41:33.702Z,6.47
2018-01-14T16:44:01.362Z,5.95
2018-01-14T16:46:28.844Z,5.03
2018-01-14T16:48:56.345Z,5.40
2018-01-14T16:51:23.839Z,5.60
2018-01-14T16:53:51.327Z,7.97
2018-01-14T16:56:18.825Z,5.87
2018-01-14T16:58:46.313Z,6.75
2018-01-14T17:01:13.808Z,6.00
2018-01-14T17:03:41.300Z,7.35
2018-01-14T17:06:08.802Z,7.40
2018-01-14T17:08:36.281Z,7.47
2018-01-14T17:11:03.763Z,6.90
2018-01-14T17:13:31.262Z,6.80
2018-01-14T17:15:58.742Z,7.37
2018-01-14T17:18:26.250Z,7.53
2018-01-14T17:20:53.934Z,6.47
2018-01-14T17:23:21.443Z,6.93
2018-01-14T17:25:48.921Z,6.28
2018-01-14T17:28:16.494Z,9.77
2018-01-14T17:30:43.993Z,9.20
2018-01-14T17:33:11.502Z,7.70
2018-01-14T17:35:39.070Z,8.18
2018-01-14T17:38:06.567Z,7.78
2018-01-14T17:40:34.071Z,7.60
2018-01-14T17:43:01.579Z,6.82
2018-01-14T17:45:29.142Z,7.35
2018-01-14T17:47:56.662Z,7.32
2018-01-14T17:50:24.371Z,8.30
2018-01-14T17:52:52.007Z,6.93
2018-01-14T17:55:19.510Z,8.50
2018-01-14T17:57:46.805Z,7.68
2018-01-14T18:00:14.150Z,10.00
2018-01-14T18:02:41.631Z,5.85
2018-01-14T18:05:09.158Z,6.05
2018-01-14T18:07:36.805Z,7.22
2018-01-14T18:10:04.308Z,7.93
2018-01-14T18:12:31.785Z,7.70
2018-01-14T18:14:59.261Z,8.20
2018-01-14T18:17:26.496Z,6.45
2018-01-14T18:19:53.972Z,7.87
2018-01-14T18:22:21.457Z,9.77
2018-01-14T18:24:48.938Z,8.85
2018-01-14T18:27:17.374Z,7.95
2018-01-14T18:29:44.886Z,8.73
2018-01-14T18:32:12.541Z,7.18
2018-01-14T18:34:40.031Z,7.28
2018-01-14T18:37:07.513Z,7.15
2018-01-14T18:39:34.994Z,8.00
2018-01-14T18:42:02.499Z,7.07
2018-01-14T18:44:29.969Z,8.73
2018-01-14T18:46:58.405Z,8.50
2018-01-14T18:49:25.885Z,8.00
2018-01-14T18:51:53.365Z,6.82
2018-01-14T18:54:21.718Z,8.73
2018-01-14T18:56:49.203Z,8.40
2018-01-14T18:59:16.702Z,9.90
2018-01-14T19:01:44.185Z,7.32
2018-01-14T19:04:11.751Z,8.43
2018-01-14T19:06:39.268Z,7.72
2018-01-14T19:09:06.747Z,8.88
2018-01-14T19:11:34.250Z,10.00
2018-01-14T19:14:01.752Z,9.68
2018-01-14T19:16:29.561Z,9.18
2018-01-14T19:18:57.050Z,11.23
2018-01-14T19:21:24.542Z,7.65
2018-01-14T19:23:52.030Z,10.48
2018-01-14T19:26:19.519Z,10.57
2018-01-14T19:28:47.030Z,8.35
2018-01-14T19:31:14.509Z,6.62
2018-01-14T19:33:41.996Z,8.25
2018-01-14T19:36:09.489Z,7.30
2018-01-14T19:38:36.970Z,6.75
2018-01-14T19:41:04.574Z,6.93
2018-01-14T19:43:31.922Z,8.05
2018-01-14T19:45:59.558Z,9.40
2018-01-14T19:48:27.038Z,8.93
2018-01-14T19:50:54.537Z,8.52
2018-01-14T19:53:22.017Z,9.65
2018-01-14T19:55:49.507Z,12.20
2018-01-14T19:58:17.083Z,12.05
2018-01-14T20:00:44.567Z,15.00
2018-01-14T20:03:12.081Z,16.83
2018-01-14T20:05:39.576Z,31.08
2018-01-14T20:08:07.096Z,36.38
2018-01-14T20:10:34.675Z,27.85
2018-01-14T20:13:02.169Z,24.10
2018-01-14T20:15:29.686Z,19.12
2018-01-14T20:17:57.201Z,18.37
2018-01-14T20:20:24.695Z,20.05
2018-01-14T20:22:53.849Z,21.58
2018-01-14T20:25:21.342Z,17.23
2018-01-14T20:27:48.858Z,15.20
2018-01-14T20:30:22.433Z,25.12
2018-01-14T20:32:50.356Z,12.43
2018-01-14T20:35:17.853Z,16.87
2018-01-14T20:37:45.353Z,15.00
2018-01-14T20:40:12.868Z,13.05
2018-01-14T20:42:40.454Z,14.93
2018-01-14T20:45:08.098Z,14.15
2018-01-14T20:47:35.589Z,13.60
2018-01-14T20:50:03.081Z,17.25
2018-01-14T20:52:30.610Z,20.37
2018-01-14T20:54:58.097Z,15.35
2018-01-14T20:57:26.641Z,21.48
2018-01-14T20:59:54.144Z,15.85
2018-01-14T21:02:21.724Z,13.68
2018-01-14T21:04:49.208Z,15.65
2018-01-14T21:07:16.770Z,20.92
2018-01-14T21:09:44.098Z,31.00
2018-01-14T21:12:11.601Z,19.62
2018-01-14T21:14:39.114Z,13.90
2018-01-14T21:17:06.781Z,14.43
2018-01-14T21:19:34.298Z,15.27
2018-01-14T21:22:05.250Z,15.35
2018-01-14T21:24:33.074Z,12.80
2018-01-14T21:29:25.737Z,15.88
2018-01-14T21:31:53.226Z,20.25
2018-01-14T21:34:20.734Z,18.77
2018-01-14T21:36:48.225Z,16.17
2018-01-14T21:39:16.095Z,17.85
2018-01-14T21:41:43.593Z,18.05
2018-01-14T21:44:11.108Z,16.83
2018-01-14T21:46:39.578Z,16.48
2018-01-14T21:49:07.121Z,15.15
2018-01-14T21:51:35.626Z,13.10
2018-01-14T21:54:05.122Z,15.57
2018-01-14T21:56:32.609Z,14.55
2018-01-14T21:59:00.139Z,25.02
2018-01-14T22:01:27.629Z,17.25
2018-01-14T22:03:55.218Z,52.65
2018-01-14T22:06:27.286Z,38.03
2018-01-14T22:08:54.798Z,25.40
2018-01-14T22:11:22.302Z,16.40
2018-01-14T22:13:49.830Z,19.58
2018-01-14T22:16:17.324Z,18.98
2018-01-14T22:18:44.841Z,19.37
2018-01-14T22:21:12.333Z,21.83
2018-01-14T22:23:39.841Z,16.55
2018-01-14T22:26:07.654Z,16.85
2018-01-14T22:28:35.149Z,19.12
2018-01-14T22:31:02.686Z,20.40
2018-01-14T22:33:30.185Z,20.27
2018-01-14T22:35:57.757Z,21.85
2018-01-14T22:38:25.354Z,18.40
2018-01-14T22:40:52.841Z,15.48
2018-01-14T22:43:20.180Z,17.90
2018-01-14T22:45:47.670Z,13.62
2018-01-14T22:48:15.159Z,16.73
2018-01-14T22:50:42.670Z,16.73
2018-01-14T22:53:10.165Z,15.25
2018-01-14T22:55:37.651Z,16.83
2018-01-14T22:58:05.141Z,19.02
2018-01-14T23:00:32.453Z,21.35
2018-01-14T23:02:59.951Z,15.90
2018-01-14T23:05:27.472Z,14.65
2018-01-14T23:07:54.982Z,18.52
2018-01-14T23:10:22.506Z,20.02
2018-01-14T23:12:49.989Z,17.42
2018-01-14T23:15:17.480Z,18.50
2018-01-14T23:17:45.977Z,15.50
2018-01-14T23:20:13.470Z,17.05
2018-01-14T23:22:40.964Z,18.75
2018-01-14T23:25:08.456Z,18.58
2018-01-14T23:27:36.646Z,20.92
2018-01-14T23:30:04.308Z,17.12
2018-01-14T23:32:31.821Z,18.40
2018-01-14T23:34:59.325Z,22.95
2018-01-14T23:37:26.813Z,22.40
2018-01-14T23:39:54.309Z,22.30
2018-01-14T23:42:21.901Z,29.40
2018-01-14T23:44:49.384Z,19.42
2018-01-14T23:47:16.919Z,18.65
2018-01-14T23:49:44.414Z,15.32
2018-01-14T23:52:11.934Z,19.15
2018-01-14T23:54:39.441Z,18.98
2018-01-14T23:57:06.933Z,16.60
2018-01-14T23:59:34.436Z,21.58
